Kemptville, Canada
Current Conditions -  °F | °C
As of 5:00 PM on Saturday 25 Oct 2014 (Local Time) from CYOW Reporting Station
Haze Haze  
Wind Chill: 54°   Ceiling: 1000
Heat Index: 54°   Visibility: 5mi
Dew Point: 52°   Wind: 10mph
Humidity: 94%   Direction: 220°SW
Pressure: 29.46"   Gusts: 18mph
Location:  45.02°N, 75.65°W
Report Text: CYOW 252100Z 22009G16KT 5SM BR BKN010 12/11 A2946 RMK CF5 SLP978 DENSITY ALT 600FT
Loading
Personal Weather Stations






























Interactive Weather Map New forecast layout! Learn more

10-Day Weather Forecast

Advertisements
Track Severe Weather on mobile